Time;durP1;ratioP1;P1;durP2;ratioP2;P2;SDS_P1;SDS_P2;PMS_P1;PMS_P2;Temp;Humidity;BMP_temperature;BMP_pressure;BME280_temperature;BME280_humidity;BME280_pressure;Samples;Min_cycle;Max_cycle;Signal;HPM_P1;HPM_P2
2021/05/19 00:01:04;;;;;;;6.53;5.55;;;8.60;99.90;;;;;;5011233;28;20717;-63
2021/05/19 00:03:31;;;;;;;9.50;5.88;;;8.60;99.90;;;;;;5011235;28;20523;-65
2021/05/19 00:05:59;;;;;;;9.75;5.55;;;8.50;99.90;;;;;;5011266;28;20675;-64
2021/05/19 00:08:27;;;;;;;10.07;6.55;;;8.50;99.90;;;;;;5011745;28;20224;-65
2021/05/19 00:10:54;;;;;;;9.13;7.13;;;8.50;99.90;;;;;;5011433;28;20183;-65
2021/05/19 00:13:26;;;;;;;7.00;5.93;;;8.50;99.90;;;;;;5011185;28;20313;-62
2021/05/19 00:15:55;;;;;;;7.55;6.40;;;8.40;99.90;;;;;;5011488;28;20839;-63
2021/05/19 00:18:22;;;;;;;10.85;6.80;;;8.40;99.90;;;;;;5011033;28;20188;-63
2021/05/19 00:20:50;;;;;;;12.27;6.53;;;8.30;99.90;;;;;;5011697;28;20571;-62
2021/05/19 00:23:18;;;;;;;9.65;6.55;;;8.40;99.90;;;;;;5011176;28;20210;-64
2021/05/19 00:25:46;;;;;;;8.32;6.45;;;8.30;99.90;;;;;;5011105;28;20221;-63
2021/05/19 00:28:14;;;;;;;8.50;6.32;;;8.20;99.90;;;;;;5011111;28;20225;-64
2021/05/19 00:30:42;;;;;;;11.05;6.47;;;8.10;99.90;;;;;;5010953;28;20216;-64
2021/05/19 00:33:11;;;;;;;11.43;7.70;;;8.00;99.90;;;;;;5011090;28;20240;-64
2021/05/19 00:35:39;;;;;;;6.88;6.13;;;7.90;99.90;;;;;;5011068;28;20277;-62
2021/05/19 00:38:06;;;;;;;8.20;6.05;;;8.00;99.90;;;;;;5011322;28;20221;-64
2021/05/19 00:40:34;;;;;;;6.60;5.53;;;8.00;99.90;;;;;;5011305;28;20198;-64
2021/05/19 00:43:02;;;;;;;10.10;6.45;;;8.10;99.90;;;;;;5011075;28;20206;-63
2021/05/19 00:45:29;;;;;;;6.80;5.60;;;8.10;99.90;;;;;;5009465;28;20204;-63
2021/05/19 00:47:57;;;;;;;7.68;5.50;;;8.10;99.90;;;;;;5010763;28;20244;-62
2021/05/19 00:50:28;;;;;;;9.82;5.57;;;8.00;99.90;;;;;;5009647;28;20186;-62
2021/05/19 00:52:57;;;;;;;9.02;5.85;;;8.10;99.90;;;;;;5010108;28;20702;-63
2021/05/19 00:55:26;;;;;;;11.70;6.72;;;8.20;99.90;;;;;;5014684;28;20245;-63
2021/05/19 00:57:55;;;;;;;8.38;7.43;;;8.30;99.90;;;;;;5014718;28;20213;-63
2021/05/19 01:00:28;;;;;;;10.90;7.35;;;8.40;99.90;;;;;;5013633;28;20547;-62
2021/05/19 01:03:04;;;;;;;8.48;6.65;;;8.60;99.90;;;;;;5014734;28;20251;-64
2021/05/19 01:05:37;;;;;;;8.63;5.63;;;8.60;99.90;;;;;;5012950;28;20197;-59
2021/05/19 01:11:04;;;;;;;8.95;7.00;;;8.60;99.90;;;;;;5014508;28;20273;-61
2021/05/19 01:13:31;;;;;;;10.20;6.85;;;8.50;99.90;;;;;;5014359;28;20237;-60
2021/05/19 01:16:00;;;;;;;8.27;5.80;;;8.60;99.90;;;;;;5013999;28;20186;-60
2021/05/19 01:18:28;;;;;;;8.73;7.32;;;8.60;99.90;;;;;;5013897;28;20285;-66
2021/05/19 01:20:58;;;;;;;11.43;6.00;;;8.70;99.90;;;;;;5013737;28;20229;-63
2021/05/19 01:23:30;;;;;;;7.60;5.57;;;8.80;99.90;;;;;;5013899;28;20217;-62
2021/05/19 01:25:59;;;;;;;6.03;4.97;;;8.90;99.90;;;;;;5012684;28;20232;-64
2021/05/19 01:28:27;;;;;;;16.38;6.70;;;9.10;99.90;;;;;;5013127;28;20226;-62
2021/05/19 01:30:55;;;;;;;11.43;7.18;;;9.00;99.90;;;;;;5013668;28;20190;-62
2021/05/19 01:33:23;;;;;;;6.55;5.57;;;9.00;99.90;;;;;;5012498;28;20260;-63
2021/05/19 01:35:51;;;;;;;5.97;5.32;;;9.10;99.90;;;;;;5014084;28;20570;-61
2021/05/19 01:38:19;;;;;;;7.95;5.70;;;9.30;99.90;;;;;;5012680;28;20570;-59
2021/05/19 01:40:48;;;;;;;7.00;5.93;;;9.40;99.90;;;;;;5012495;28;20253;-62
2021/05/19 01:43:15;;;;;;;7.25;4.95;;;9.30;99.90;;;;;;5012352;28;20237;-62
2021/05/19 01:46:21;;;;;;;8.00;5.80;;;9.30;99.90;;;;;;4972398;28;20676;-61
2021/05/19 01:48:56;;;;;;;7.07;6.38;;;9.30;99.90;;;;;;4972634;28;20195;-61
2021/05/19 01:51:24;;;;;;;7.10;5.00;;;9.40;99.90;;;;;;4994458;28;20271;-60
2021/05/19 01:53:53;;;;;;;5.60;4.72;;;9.40;99.90;;;;;;5013578;28;20679;-59
2021/05/19 01:56:22;;;;;;;6.32;5.68;;;9.50;99.90;;;;;;5013845;28;20217;-62
2021/05/19 01:58:54;;;;;;;7.78;4.90;;;9.50;99.90;;;;;;5012445;28;20194;-60
2021/05/19 02:01:22;;;;;;;9.68;7.40;;;9.40;99.90;;;;;;5013383;28;20222;-60
2021/05/19 02:04:03;;;;;;;10.48;4.82;;;9.40;99.90;;;;;;5013571;28;20530;-60
2021/05/19 02:06:42;;;;;;;7.65;5.65;;;9.40;99.90;;;;;;5012522;28;20214;-62
2021/05/19 02:09:10;;;;;;;5.72;4.80;;;9.40;99.90;;;;;;5012122;28;20285;-57
2021/05/19 02:11:39;;;;;;;4.90;4.40;;;9.40;99.90;;;;;;5012425;28;20186;-62
2021/05/19 02:14:09;;;;;;;6.57;5.25;;;9.40;99.90;;;;;;5013454;28;20230;-60
2021/05/19 02:16:37;;;;;;;7.18;5.18;;;9.40;99.90;;;;;;5012267;28;20597;-61
2021/05/19 02:19:07;;;;;;;7.05;5.20;;;9.40;99.90;;;;;;5013491;28;20557;-63
2021/05/19 02:21:40;;;;;;;6.07;4.60;;;9.40;99.90;;;;;;5012122;28;20221;-61
2021/05/19 02:24:11;;;;;;;5.55;4.18;;;9.40;99.90;;;;;;5011581;28;20730;-61
2021/05/19 02:26:41;;;;;;;6.97;5.30;;;9.50;99.90;;;;;;5062392;22;20231;-68
2021/05/19 02:29:13;;;;;;;6.13;4.95;;;9.50;99.90;;;;;;5072211;28;20192;-68
2021/05/19 02:31:42;;;;;;;7.05;6.35;;;9.50;99.90;;;;;;5072815;28;20173;-68
2021/05/19 02:34:10;;;;;;;8.40;5.43;;;9.50;99.90;;;;;;5072730;28;20204;-69
2021/05/19 02:36:40;;;;;;;7.15;4.88;;;9.40;99.90;;;;;;5071635;28;20188;-68
2021/05/19 02:39:12;;;;;;;8.90;4.70;;;9.40;99.90;;;;;;5072875;28;20191;-68
2021/05/19 02:41:44;;;;;;;7.70;4.25;;;9.40;99.90;;;;;;5071510;28;20261;-67
2021/05/19 02:44:12;;;;;;;5.47;4.70;;;9.50;99.90;;;;;;5071717;28;20722;-68
2021/05/19 02:46:40;;;;;;;7.00;4.97;;;9.50;99.90;;;;;;5073179;28;20711;-68
2021/05/19 02:49:08;;;;;;;9.82;5.25;;;9.50;99.90;;;;;;5072952;28;20600;-69
2021/05/19 02:51:38;;;;;;;13.15;5.03;;;9.50;99.90;;;;;;5073319;28;20675;-70
2021/05/19 02:54:06;;;;;;;7.75;5.75;;;9.60;99.90;;;;;;5073149;28;20253;-70
2021/05/19 02:56:34;;;;;;;6.20;5.05;;;9.70;99.90;;;;;;5072920;28;20188;-69
2021/05/19 02:59:03;;;;;;;8.18;4.50;;;9.70;99.90;;;;;;5072956;28;20730;-69
2021/05/19 03:01:31;;;;;;;6.13;4.55;;;9.70;99.90;;;;;;5072913;28;20258;-67
2021/05/19 03:03:58;;;;;;;5.25;4.68;;;9.70;99.90;;;;;;5072619;28;20286;-68
2021/05/19 03:06:26;;;;;;;7.10;5.13;;;9.70;99.90;;;;;;5072971;28;20188;-68
2021/05/19 03:08:54;;;;;;;6.20;5.60;;;9.80;99.90;;;;;;5072503;28;20267;-69
2021/05/19 03:11:22;;;;;;;7.22;5.18;;;9.70;99.90;;;;;;5072297;28;20180;-68
2021/05/19 03:13:50;;;;;;;11.30;5.72;;;9.70;99.90;;;;;;5072292;28;20978;-68
2021/05/19 03:16:18;;;;;;;5.95;5.15;;;9.70;99.90;;;;;;5072571;28;20176;-68
2021/05/19 03:18:46;;;;;;;7.78;4.95;;;9.70;99.90;;;;;;5072602;28;20192;-71
2021/05/19 03:21:14;;;;;;;6.55;4.97;;;9.80;99.90;;;;;;5072279;28;20202;-68
2021/05/19 03:23:42;;;;;;;6.10;5.30;;;9.80;99.90;;;;;;5072004;28;20204;-68
2021/05/19 03:26:10;;;;;;;6.80;5.18;;;9.80;99.90;;;;;;5072170;28;20622;-68
2021/05/19 03:28:38;;;;;;;6.57;5.97;;;9.80;99.90;;;;;;5072507;28;20195;-68
2021/05/19 03:31:05;;;;;;;6.47;5.13;;;10.00;99.90;;;;;;5071414;28;20222;-69
2021/05/19 03:33:34;;;;;;;8.53;7.73;;;10.40;99.90;;;;;;5072721;28;20747;-69
2021/05/19 03:36:03;;;;;;;6.87;4.43;;;11.00;99.90;;;;;;5072630;28;20465;-70
2021/05/19 03:38:30;;;;;;;7.83;4.60;;;11.60;99.90;;;;;;5073127;28;20630;-70
2021/05/19 03:40:58;;;;;;;8.30;4.47;;;12.10;99.90;;;;;;5071253;28;20665;-70
2021/05/19 03:43:26;;;;;;;4.60;3.70;;;12.40;99.90;;;;;;5072846;28;20446;-70
2021/05/19 03:45:53;;;;;;;8.33;4.97;;;12.20;99.90;;;;;;5071441;28;20931;-69
2021/05/19 03:48:21;;;;;;;6.13;4.33;;;11.80;99.90;;;;;;5072704;28;20904;-70
2021/05/19 03:50:53;;;;;;;7.00;4.83;;;11.40;99.90;;;;;;5071951;28;20486;-69
2021/05/19 03:53:24;;;;;;;6.20;4.60;;;11.30;99.90;;;;;;5072039;28;20544;-69
2021/05/19 03:55:57;;;;;;;6.40;4.40;;;11.20;99.90;;;;;;5070366;28;20462;-69
2021/05/19 03:58:28;;;;;;;6.10;5.03;;;11.10;99.90;;;;;;5072679;28;20505;-69
2021/05/19 04:01:04;;;;;;;7.47;5.23;;;11.40;99.90;;;;;;5071911;28;20431;-69
2021/05/19 04:03:51;;;;;;;8.23;5.20;;;12.00;99.90;;;;;;5072613;28;20442;-70
2021/05/19 04:06:35;;;;;;;5.30;4.73;;;11.90;99.90;;;;;;5073008;28;20411;-69
2021/05/19 04:09:11;;;;;;;4.70;4.00;;;11.70;99.90;;;;;;5073338;28;20393;-69
2021/05/19 04:11:40;;;;;;;5.80;3.93;;;12.30;99.90;;;;;;5072175;28;20504;-69
2021/05/19 04:14:16;;;;;;;5.87;5.17;;;13.40;99.90;;;;;;5072082;28;20409;-69
2021/05/19 04:16:48;;;;;;;9.60;4.47;;;14.30;99.90;;;;;;5071565;28;20458;-69
2021/05/19 04:19:23;;;;;;;6.53;4.70;;;14.90;99.90;;;;;;5052558;28;20449;-69
2021/05/19 04:21:55;;;;;;;6.90;4.60;;;15.40;99.90;;;;;;5051142;28;20441;-69
2021/05/19 04:24:23;;;;;;;7.37;5.60;;;15.90;99.90;;;;;;5051439;28;20419;-69
2021/05/19 04:26:51;;;;;;;6.33;5.33;;;15.30;99.90;;;;;;5051218;28;20455;-69
2021/05/19 04:29:20;;;;;;;7.73;5.63;;;15.20;99.90;;;;;;5051766;28;20431;-70
2021/05/19 04:31:48;;;;;;;5.33;4.30;;;14.70;99.90;;;;;;5051486;28;20430;-69
2021/05/19 04:34:19;;;;;;;5.80;4.23;;;14.90;99.90;;;;;;5051509;28;20430;-68
2021/05/19 04:36:50;;;;;;;6.93;5.00;;;15.50;99.90;;;;;;5052205;28;20461;-69
2021/05/19 04:39:22;;;;;;;7.07;5.47;;;15.60;99.90;;;;;;5067533;28;20450;-68
2021/05/19 04:41:54;;;;;;;8.50;6.23;;;14.10;99.90;;;;;;5051196;28;20476;-71
2021/05/19 04:44:23;;;;;;;7.03;5.60;;;13.30;99.90;;;;;;5051432;28;20397;-68
2021/05/19 04:46:52;;;;;;;6.97;5.00;;;12.80;99.90;;;;;;5050769;28;20993;-69
2021/05/19 04:49:20;;;;;;;7.00;5.13;;;13.20;99.90;;;;;;5051152;28;20374;-69
2021/05/19 04:51:52;;;;;;;8.80;5.93;;;14.30;99.90;;;;;;5049347;28;20442;-68
2021/05/19 04:54:24;;;;;;;10.17;5.27;;;15.60;99.90;;;;;;5050751;28;20382;-70
2021/05/19 04:56:56;;;;;;;5.50;4.50;;;16.40;99.90;;;;;;5051214;28;20896;-70
2021/05/19 04:59:27;;;;;;;5.80;3.80;;;17.60;99.90;;;;;;5050048;28;20771;-69
2021/05/19 05:01:56;;;;;;;5.53;4.93;;;19.30;99.90;;;;;;5050707;28;20452;-69
2021/05/19 05:04:26;;;;;;;5.73;5.10;;;20.50;99.90;;;;;;5050778;28;20394;-68
2021/05/19 05:06:58;;;;;;;6.37;5.70;;;20.60;99.90;;;;;;5051378;28;20454;-69
2021/05/19 05:09:32;;;;;;;6.13;4.87;;;20.30;99.90;;;;;;5050778;28;20442;-70
2021/05/19 05:12:03;;;;;;;9.17;5.70;;;19.40;99.90;;;;;;5052148;28;20429;-68
2021/05/19 05:14:32;;;;;;;9.40;5.07;;;18.40;99.90;;;;;;5050247;28;20768;-69
2021/05/19 05:17:00;;;;;;;5.33;4.70;;;17.70;99.90;;;;;;5050824;28;20444;-68
2021/05/19 05:19:31;;;;;;;6.13;4.37;;;17.80;99.90;;;;;;5050788;28;20428;-69
2021/05/19 05:22:01;;;;;;;5.57;4.77;;;18.50;99.90;;;;;;5050514;28;20433;-70
2021/05/19 05:24:37;;;;;;;5.87;5.00;;;19.30;99.90;;;;;;5050101;28;20780;-70
2021/05/19 05:27:06;;;;;;;7.10;5.17;;;18.20;99.90;;;;;;5050354;28;20463;-70
2021/05/19 05:29:34;;;;;;;5.20;4.70;;;16.10;99.90;;;;;;5050134;28;20405;-68
2021/05/19 05:32:08;;;;;;;6.77;4.50;;;14.30;99.90;;;;;;5043567;28;20398;-67
2021/05/19 05:34:37;;;;;;;6.83;4.70;;;13.40;99.90;;;;;;5049855;28;20386;-68
2021/05/19 05:37:06;;;;;;;5.70;4.73;;;12.80;99.90;;;;;;5049892;28;20789;-68
2021/05/19 05:39:59;;;;;;;4.80;4.30;;;12.60;99.90;;;;;;5051093;28;20422;-67
2021/05/19 05:42:37;;;;;;;8.27;4.00;;;12.50;99.90;;;;;;5053836;28;20469;-68
2021/05/19 05:45:10;;;;;;;5.00;4.17;;;12.40;99.90;;;;;;5055166;28;20532;-68
2021/05/19 05:47:52;;;;;;;6.87;5.77;;;12.40;99.90;;;;;;5055005;28;20450;-66
2021/05/19 05:50:23;;;;;;;5.50;4.37;;;12.40;99.90;;;;;;5061856;28;20750;-67
2021/05/19 05:53:00;;;;;;;4.67;3.70;;;12.40;99.90;;;;;;5074098;28;20442;-67
2021/05/19 05:55:36;;;;;;;10.60;4.27;;;12.50;99.90;;;;;;5073959;28;20830;-66
2021/05/19 05:58:08;;;;;;;7.40;4.73;;;12.50;99.90;;;;;;5059330;28;20428;-67
2021/05/19 06:00:37;;;;;;;6.30;5.20;;;12.40;99.90;;;;;;5054062;28;20526;-67
2021/05/19 06:03:07;;;;;;;5.43;4.17;;;12.20;99.90;;;;;;5053623;28;20483;-67
2021/05/19 06:05:37;;;;;;;5.83;4.50;;;12.20;99.90;;;;;;5053450;28;20455;-67
2021/05/19 06:08:19;;;;;;;5.67;4.07;;;12.30;99.90;;;;;;5054063;28;20590;-67
2021/05/19 06:10:52;;;;;;;6.27;4.90;;;12.50;99.90;;;;;;5056458;28;20419;-68
2021/05/19 06:13:21;;;;;;;6.43;4.10;;;12.50;99.90;;;;;;5066319;28;20941;-66
2021/05/19 06:15:50;;;;;;;5.50;4.20;;;12.70;99.90;;;;;;5034085;28;20423;-67
2021/05/19 06:18:24;;;;;;;5.97;4.60;;;12.60;99.90;;;;;;5033734;28;20442;-67
2021/05/19 06:20:52;;;;;;;8.83;7.17;;;12.50;99.90;;;;;;5034446;28;20395;-68
2021/05/19 06:23:21;;;;;;;9.67;7.60;;;12.60;99.90;;;;;;5034408;28;20450;-68
2021/05/19 06:25:55;;;;;;;18.57;16.57;;;12.80;99.90;;;;;;5033874;28;20453;-68
2021/05/19 06:28:27;;;;;;;69.20;51.37;;;12.80;99.90;;;;;;5032868;28;20425;-68
2021/05/19 06:31:10;;;;;;;47.27;33.83;;;12.70;99.90;;;;;;5033538;28;20422;-66
2021/05/19 06:33:51;;;;;;;9.40;6.90;;;12.80;99.90;;;;;;5033489;28;20485;-66
2021/05/19 06:36:30;;;;;;;33.63;28.77;;;12.80;99.90;;;;;;5034088;28;20394;-68
2021/05/19 06:39:01;;;;;;;4.60;3.57;;;12.80;99.90;;;;;;5018955;28;20422;-67
2021/05/19 06:41:32;;;;;;;4.23;3.60;;;12.90;99.90;;;;;;5013526;28;20460;-67
2021/05/19 06:44:04;;;;;;;4.23;3.53;;;12.90;99.90;;;;;;5011759;28;20424;-67
2021/05/19 06:46:32;;;;;;;4.83;3.67;;;12.90;99.90;;;;;;5012691;28;20452;-67
2021/05/19 06:49:09;;;;;;;5.47;3.43;;;12.90;99.90;;;;;;5012990;28;20424;-67
2021/05/19 06:51:42;;;;;;;7.67;4.23;;;12.90;99.90;;;;;;5012204;28;20831;-67
2021/05/19 06:54:13;;;;;;;5.30;4.00;;;13.00;99.90;;;;;;5012562;28;20485;-67
2021/05/19 06:56:44;;;;;;;9.03;4.83;;;13.10;99.90;;;;;;5012931;28;20384;-67
2021/05/19 06:59:19;;;;;;;6.00;5.40;;;13.10;99.90;;;;;;5012795;28;20407;-67
2021/05/19 07:01:51;;;;;;;4.33;3.93;;;13.00;99.90;;;;;;5012641;28;20425;-68
2021/05/19 07:04:24;;;;;;;6.97;3.27;;;12.80;99.90;;;;;;5012577;28;20416;-67
2021/05/19 07:06:53;;;;;;;5.20;3.57;;;12.80;99.90;;;;;;5025576;28;20511;-68
2021/05/19 07:09:24;;;;;;;4.07;3.67;;;12.80;99.90;;;;;;5033894;28;20471;-69
2021/05/19 07:11:53;;;;;;;3.13;2.57;;;12.90;99.90;;;;;;5034235;28;20451;-69
2021/05/19 07:14:25;;;;;;;3.10;2.30;;;13.20;99.90;;;;;;5034227;28;20414;-69
2021/05/19 07:16:53;;;;;;;2.60;2.40;;;13.40;99.90;;;;;;5033645;28;20403;-69
2021/05/19 07:19:26;;;;;;;5.77;3.97;;;13.40;99.90;;;;;;5033811;28;20432;-68
2021/05/19 07:21:55;;;;;;;4.40;2.90;;;13.40;99.90;;;;;;5032952;28;20527;-69
2021/05/19 07:24:24;;;;;;;3.50;3.10;;;13.40;99.90;;;;;;5033252;28;20899;-67
2021/05/19 07:26:54;;;;;;;3.00;2.53;;;13.60;99.90;;;;;;5032425;28;20434;-68
2021/05/19 07:29:22;;;;;;;4.23;3.50;;;13.70;99.90;;;;;;5031951;28;20487;-69
2021/05/19 07:31:54;;;;;;;6.50;2.73;;;13.70;99.90;;;;;;5031814;28;20474;-68
2021/05/19 07:34:25;;;;;;;3.10;2.80;;;13.80;99.90;;;;;;5031984;28;20399;-68
2021/05/19 07:36:54;;;;;;;3.37;2.90;;;14.20;99.90;;;;;;5031857;28;20942;-68
2021/05/19 07:39:25;;;;;;;2.67;2.40;;;14.40;99.90;;;;;;5032066;28;20398;-68
2021/05/19 07:42:02;;;;;;;2.20;2.00;;;14.50;99.90;;;;;;5031455;28;20398;-68
2021/05/19 07:44:31;;;;;;;3.33;2.27;;;14.50;99.90;;;;;;5030434;28;20399;-68
2021/05/19 07:47:00;;;;;;;3.20;2.23;;;14.60;99.90;;;;;;5031959;28;20456;-68
2021/05/19 07:49:30;;;;;;;2.70;2.00;;;14.40;99.90;;;;;;5031812;28;20768;-66
2021/05/19 07:51:56;;;;;;;2.63;2.43;;;14.50;99.90;;;;;;5031727;28;20395;-68
2021/05/19 07:54:26;;;;;;;2.93;2.67;;;14.90;99.90;;;;;;5032156;28;20732;-67
2021/05/19 07:56:56;;;;;;;3.23;2.40;;;14.90;99.90;;;;;;5020783;28;20756;-67
2021/05/19 07:59:26;;;;;;;3.93;2.50;;;14.90;99.90;;;;;;5011536;28;20448;-68
2021/05/19 08:02:05;;;;;;;4.43;2.83;;;15.00;99.90;;;;;;5011489;28;20429;-67
2021/05/19 08:04:33;;;;;;;3.67;2.07;;;14.70;99.90;;;;;;5011219;28;20425;-68
2021/05/19 08:07:01;;;;;;;1.80;1.40;;;14.50;99.90;;;;;;5011698;28;20949;-67
2021/05/19 08:09:28;;;;;;;1.73;1.50;;;14.30;99.90;;;;;;5011841;28;20404;-67
2021/05/19 08:11:55;;;;;;;2.13;1.53;;;14.30;99.90;;;;;;5011297;28;20456;-70
2021/05/19 08:14:25;;;;;;;2.30;2.10;;;14.50;99.90;;;;;;5011438;28;20425;-68
2021/05/19 08:16:52;;;;;;;3.47;2.17;;;14.50;99.90;;;;;;5011573;28;20486;-67
2021/05/19 08:19:18;;;;;;;1.73;1.27;;;14.60;99.90;;;;;;5011932;28;20876;-68
2021/05/19 08:21:46;;;;;;;2.03;1.50;;;14.80;99.90;;;;;;5011398;28;20396;-67
2021/05/19 08:24:13;;;;;;;2.47;1.60;;;15.20;99.90;;;;;;5010873;28;20804;-67
2021/05/19 08:26:42;;;;;;;2.10;1.90;;;15.30;99.90;;;;;;5025415;23;20550;-68
2021/05/19 08:29:10;;;;;;;6.77;2.50;;;15.50;99.90;;;;;;5020309;28;20408;-67
2021/05/19 08:31:38;;;;;;;2.50;2.03;;;15.40;99.90;;;;;;5010613;28;20404;-68
2021/05/19 08:34:12;;;;;;;3.27;2.30;;;15.30;99.90;;;;;;5009379;28;20836;-67
2021/05/19 08:36:40;;;;;;;2.70;2.00;;;15.40;99.90;;;;;;5009726;28;20475;-69
2021/05/19 08:39:08;;;;;;;2.57;1.70;;;15.50;99.90;;;;;;5010318;28;20392;-69
2021/05/19 08:41:36;;;;;;;2.90;2.57;;;15.40;99.90;;;;;;5009404;28;20407;-69
2021/05/19 08:44:04;;;;;;;4.40;1.80;;;15.50;99.90;;;;;;5024762;28;20484;-69
2021/05/19 08:46:33;;;;;;;5.57;2.00;;;16.00;99.90;;;;;;5010082;28;20399;-67
2021/05/19 08:49:03;;;;;;;3.03;2.30;;;16.20;99.90;;;;;;5025712;28;20442;-68
2021/05/19 08:51:31;;;;;;;2.93;1.77;;;15.90;99.90;;;;;;5010855;28;20416;-67
2021/05/19 08:54:01;;;;;;;1.93;1.83;;;16.00;99.90;;;;;;5011087;28;20416;-68
2021/05/19 08:56:28;;;;;;;2.07;1.87;;;16.30;99.90;;;;;;5011085;28;20507;-68
2021/05/19 08:58:56;;;;;;;2.20;1.80;;;15.90;99.90;;;;;;5010691;28;20446;-68
2021/05/19 09:01:25;;;;;;;2.37;2.10;;;16.20;99.90;;;;;;5010821;28;20410;-68
2021/05/19 09:04:04;;;;;;;4.70;1.73;;;16.40;99.90;;;;;;5010481;28;20477;-68
2021/05/19 09:06:35;;;;;;;2.03;1.43;;;16.30;99.90;;;;;;5010238;28;20417;-68
2021/05/19 09:09:21;;;;;;;2.33;1.30;;;16.00;99.90;;;;;;5011357;28;20757;-68
2021/05/19 09:11:59;;;;;;;2.10;1.47;;;15.70;99.90;;;;;;5011689;28;20900;-67
2021/05/19 09:14:28;;;;;;;1.67;1.23;;;15.30;99.90;;;;;;5012439;28;20838;-67
2021/05/19 09:17:16;;;;;;;2.33;1.67;;;15.20;99.90;;;;;;5014499;28;20417;-68
2021/05/19 09:19:45;;;;;;;1.40;1.30;;;15.00;99.90;;;;;;5014070;28;20425;-69
2021/05/19 09:22:21;;;;;;;2.83;1.57;;;15.10;99.90;;;;;;5013736;28;20400;-68
2021/05/19 09:24:49;;;;;;;2.13;1.43;;;15.50;99.90;;;;;;5013874;28;20423;-68
2021/05/19 09:27:18;;;;;;;1.70;1.30;;;15.40;99.90;;;;;;5014373;28;20411;-68
2021/05/19 09:29:47;;;;;;;1.80;1.60;;;15.30;99.90;;;;;;5013997;28;20917;-69
2021/05/19 09:32:17;;;;;;;2.17;1.50;;;15.50;99.90;;;;;;5013470;28;20428;-68
2021/05/19 09:34:47;;;;;;;1.77;1.67;;;15.60;99.90;;;;;;5013735;28;20456;-68
2021/05/19 09:37:19;;;;;;;2.07;1.70;;;15.80;99.90;;;;;;5013633;28;20410;-68
2021/05/19 09:39:50;;;;;;;2.70;1.87;;;15.80;99.90;;;;;;5013690;28;20499;-68
2021/05/19 09:42:18;;;;;;;2.13;1.93;;;16.00;99.90;;;;;;5013048;28;20418;-68
2021/05/19 09:44:48;;;;;;;1.73;1.57;;;15.90;99.90;;;;;;5013338;28;20461;-68
2021/05/19 09:47:37;;;;;;;1.37;1.17;;;15.80;99.90;;;;;;5013191;28;20414;-68
2021/05/19 09:50:08;;;;;;;2.23;1.27;;;15.50;99.90;;;;;;5013659;28;20483;-68
2021/05/19 09:52:36;;;;;;;2.07;1.57;;;15.80;99.90;;;;;;5012901;28;20459;-68
2021/05/19 09:55:07;;;;;;;1.77;1.63;;;16.20;99.90;;;;;;5013081;28;20400;-68
2021/05/19 09:57:49;;;;;;;5.40;1.47;;;16.30;99.90;;;;;;5013407;28;20416;-68
2021/05/19 10:00:23;;;;;;;1.00;0.80;;;16.00;99.90;;;;;;5014118;28;20887;-68
2021/05/19 10:02:51;;;;;;;2.03;1.43;;;15.70;99.90;;;;;;5013233;28;20443;-67
2021/05/19 10:05:22;;;;;;;2.00;1.80;;;15.70;99.90;;;;;;5013555;28;20392;-67
2021/05/19 10:07:53;;;;;;;3.30;1.63;;;15.40;99.90;;;;;;5028505;28;20447;-68
2021/05/19 10:10:20;;;;;;;1.90;1.60;;;15.50;99.90;;;;;;5013462;28;20967;-68
2021/05/19 10:12:48;;;;;;;1.43;1.27;;;15.80;99.90;;;;;;5012955;28;20452;-68
2021/05/19 10:15:21;;;;;;;1.53;1.30;;;16.10;99.90;;;;;;5013156;28;20458;-68
2021/05/19 10:17:52;;;;;;;2.50;1.50;;;16.50;99.90;;;;;;5013228;28;20400;-68
2021/05/19 10:20:26;;;;;;;1.77;1.53;;;16.40;99.90;;;;;;5028224;28;20595;-67
2021/05/19 10:22:54;;;;;;;1.87;1.47;;;16.40;99.90;;;;;;5012454;28;20491;-67
2021/05/19 10:25:38;;;;;;;2.20;1.60;;;16.40;99.90;;;;;;5012849;28;20399;-68
2021/05/19 10:28:08;;;;;;;3.00;1.97;;;16.40;99.90;;;;;;5012662;28;20973;-68
2021/05/19 10:30:39;;;;;;;1.97;1.77;;;16.30;99.90;;;;;;5012982;28;20423;-68
2021/05/19 10:33:08;;;;;;;3.00;1.70;;;16.50;99.90;;;;;;5012985;28;20418;-70
2021/05/19 10:35:37;;;;;;;2.07;1.57;;;16.80;99.90;;;;;;5013004;28;20416;-68
2021/05/19 10:38:20;;;;;;;2.40;2.20;;;16.30;99.90;;;;;;5028144;28;20510;-68
2021/05/19 10:40:50;;;;;;;3.30;2.30;;;16.00;99.90;;;;;;5012439;28;20480;-69
2021/05/19 10:43:19;;;;;;;1.70;1.30;;;15.70;99.90;;;;;;5012756;28;20483;-68
2021/05/19 10:45:49;;;;;;;1.97;1.53;;;15.40;99.90;;;;;;5012630;28;20971;-67
2021/05/19 10:48:28;;;;;;;2.80;2.10;;;15.50;99.90;;;;;;5012830;28;20436;-66
2021/05/19 10:51:01;;;;;;;1.30;1.00;;;15.60;99.90;;;;;;5012597;28;20398;-66
2021/05/19 10:59:18;;;;;;;2.10;1.57;;;16.00;99.90;;;;;;5012592;28;20766;-69
2021/05/19 11:01:57;;;;;;;2.13;1.30;;;16.20;99.90;;;;;;5011858;28;20392;-67
2021/05/19 11:04:27;;;;;;;1.63;1.23;;;16.60;99.90;;;;;;4994466;28;20487;-66
2021/05/19 11:07:11;;;;;;;2.27;1.67;;;16.70;99.90;;;;;;5013859;28;20429;-70
2021/05/19 11:09:43;;;;;;;1.40;1.10;;;16.60;99.90;;;;;;5012546;28;20415;-67
2021/05/19 11:12:36;;;;;;;1.10;1.00;;;16.40;99.90;;;;;;5013293;28;20886;-67
2021/05/19 11:15:45;;;;;;;2.90;1.70;;;16.00;99.90;;;;;;5013625;28;20413;-68
2021/05/19 11:18:19;;;;;;;4.40;2.20;;;16.20;99.90;;;;;;5011948;28;20570;-68
2021/05/19 11:20:47;;;;;;;2.57;1.80;;;16.20;99.90;;;;;;5011451;28;20979;-68
2021/05/19 11:23:17;;;;;;;1.67;1.20;;;16.00;99.90;;;;;;5011805;28;20472;-68
2021/05/19 11:25:45;;;;;;;2.00;1.50;;;15.90;99.90;;;;;;5012108;28;20402;-68
2021/05/19 11:28:33;;;;;;;2.30;1.57;;;15.90;99.90;;;;;;5012168;28;20392;-67
2021/05/19 11:31:08;;;;;;;3.20;1.30;;;16.30;99.90;;;;;;5008301;28;20416;-67
2021/05/19 11:33:51;;;;;;;2.07;1.47;;;16.80;99.90;;;;;;5011121;28;20419;-66
2021/05/19 11:36:30;;;;;;;1.57;1.23;;;17.40;99.90;;;;;;5011850;28;20428;-68
2021/05/19 11:39:02;;;;;;;1.83;1.33;;;17.50;99.90;;;;;;5012000;28;20873;-67
2021/05/19 11:41:30;;;;;;;1.90;1.43;;;17.30;99.90;;;;;;5010808;28;20513;-68
2021/05/19 11:43:58;;;;;;;1.70;1.10;;;17.50;99.90;;;;;;5011700;28;20447;-69
2021/05/19 11:46:26;;;;;;;1.50;1.40;;;17.20;99.90;;;;;;5011357;28;20402;-69
2021/05/19 11:49:10;;;;;;;1.60;1.00;;;17.00;99.90;;;;;;5011373;28;20424;-68
2021/05/19 11:51:44;;;;;;;2.00;1.17;;;17.30;99.90;;;;;;5010844;28;20425;-69
2021/05/19 11:54:12;;;;;;;1.43;1.00;;;17.90;99.90;;;;;;5010895;28;20520;-67
2021/05/19 11:56:42;;;;;;;1.30;1.20;;;18.10;99.90;;;;;;5026188;28;20437;-69
2021/05/19 11:59:17;;;;;;;1.93;1.57;;;17.90;99.90;;;;;;5011202;28;20399;-68
2021/05/19 12:01:59;;;;;;;1.40;1.03;;;17.30;99.90;;;;;;5010666;28;20431;-66
2021/05/19 12:04:29;;;;;;;1.50;1.27;;;16.80;99.90;;;;;;5011052;28;20789;-67
2021/05/19 12:06:59;;;;;;;1.40;1.20;;;16.50;99.90;;;;;;5009701;28;20431;-68
2021/05/19 12:09:30;;;;;;;1.53;1.30;;;16.10;99.90;;;;;;5013494;28;20400;-68
2021/05/19 12:12:11;;;;;;;2.40;1.40;;;15.80;99.90;;;;;;5010540;28;20399;-67
2021/05/19 12:14:40;;;;;;;2.13;1.10;;;15.70;99.90;;;;;;4993543;28;20395;-67
2021/05/19 12:17:09;;;;;;;4.50;1.27;;;15.60;99.90;;;;;;5011088;28;20396;-67
2021/05/19 12:19:39;;;;;;;1.30;1.20;;;15.80;99.90;;;;;;5011037;28;20431;-68
2021/05/19 12:22:14;;;;;;;2.07;1.43;;;15.90;99.90;;;;;;4992572;28;20448;-68
2021/05/19 12:24:43;;;;;;;1.87;1.37;;;16.10;99.90;;;;;;5010815;28;20477;-68
2021/05/19 12:27:11;;;;;;;1.60;1.17;;;16.20;99.90;;;;;;5009986;28;20411;-68
2021/05/19 12:29:43;;;;;;;1.43;1.20;;;16.20;99.90;;;;;;5010292;28;20404;-69
2021/05/19 12:32:13;;;;;;;1.93;1.30;;;16.30;99.90;;;;;;5009850;28;20483;-68
2021/05/19 12:34:42;;;;;;;1.00;0.80;;;16.50;99.90;;;;;;4992578;28;21016;-68
2021/05/19 12:37:10;;;;;;;1.70;1.10;;;16.20;99.90;;;;;;5009986;28;20950;-68
2021/05/19 12:39:38;;;;;;;1.80;1.13;;;15.80;99.90;;;;;;5010083;28;20415;-68
2021/05/19 12:42:15;;;;;;;1.70;1.60;;;15.70;99.90;;;;;;5038052;28;20445;-68
2021/05/19 12:44:43;;;;;;;2.50;1.13;;;15.80;99.90;;;;;;5029875;28;20556;-68
2021/05/19 12:47:13;;;;;;;3.03;1.27;;;16.00;99.90;;;;;;5029732;28;20928;-68
2021/05/19 12:49:43;;;;;;;1.20;0.80;;;16.20;99.90;;;;;;5029209;28;20563;-69
2021/05/19 12:52:17;;;;;;;1.23;1.10;;;16.10;99.90;;;;;;5029637;28;20763;-68
2021/05/19 12:54:49;;;;;;;1.88;1.20;;;16.10;99.90;;;;;;5016492;28;20481;-68
2021/05/19 12:57:25;;;;;;;1.80;1.00;;;16.00;99.90;;;;;;5010987;28;20193;-67
2021/05/19 13:00:03;;;;;;;1.73;1.23;;;15.80;99.90;;;;;;5011302;28;20883;-68
2021/05/19 13:02:43;;;;;;;2.10;1.20;;;15.90;99.90;;;;;;5009918;28;20542;-69
2021/05/19 13:05:19;;;;;;;1.37;1.27;;;16.00;99.90;;;;;;5009469;28;20468;-69
2021/05/19 13:07:49;;;;;;;2.00;1.03;;;16.10;99.90;;;;;;5009100;28;20852;-68
2021/05/19 13:10:20;;;;;;;1.63;1.50;;;15.90;99.90;;;;;;5010218;28;20400;-67
2021/05/19 13:13:12;;;;;;;2.27;1.50;;;16.00;99.90;;;;;;5009286;28;20426;-67
2021/05/19 13:15:44;;;;;;;1.27;0.87;;;16.20;99.90;;;;;;5025428;28;20829;-67
2021/05/19 13:18:21;;;;;;;1.50;1.10;;;16.20;99.90;;;;;;5009561;28;20474;-68